createdAt,value
2018-01-10T00:00:36.912Z,22.48
2018-01-10T00:01:36.778Z,22.52
2018-01-10T00:03:30.043Z,22.61
2018-01-10T00:04:29.960Z,22.53
2018-01-10T00:06:23.254Z,22.53
2018-01-10T00:07:23.118Z,22.51
2018-01-10T00:09:16.384Z,22.48
2018-01-10T00:10:16.291Z,22.51
2018-01-10T00:12:09.572Z,22.58
2018-01-10T00:13:09.478Z,22.59
2018-01-10T00:15:02.706Z,22.53
2018-01-10T00:16:02.624Z,22.59
2018-01-10T00:17:55.904Z,22.55
2018-01-10T00:18:55.803Z,22.51
2018-01-10T00:20:49.095Z,22.52
2018-01-10T00:21:49.008Z,22.49
2018-01-10T00:23:42.303Z,22.59
2018-01-10T00:24:42.193Z,22.53
2018-01-10T00:26:35.442Z,22.59
2018-01-10T00:27:35.346Z,22.49
2018-01-10T00:29:28.673Z,22.51
2018-01-10T00:30:28.553Z,22.48
2018-01-10T00:32:21.823Z,22.51
2018-01-10T00:33:21.747Z,22.46
2018-01-10T00:35:15.019Z,22.40
2018-01-10T00:36:14.911Z,22.48
2018-01-10T00:38:08.164Z,22.43
2018-01-10T00:39:08.068Z,22.48
2018-01-10T00:41:01.342Z,22.49
2018-01-10T00:42:01.244Z,22.55
2018-01-10T00:43:55.529Z,22.53
2018-01-10T00:44:55.438Z,22.51
2018-01-10T00:46:48.669Z,22.48
2018-01-10T00:47:48.562Z,22.37
2018-01-10T00:49:41.833Z,22.48
2018-01-10T00:50:41.734Z,22.48
2018-01-10T00:52:36.041Z,22.51
2018-01-10T00:53:35.940Z,22.41
2018-01-10T00:55:30.202Z,22.48
2018-01-10T00:56:30.109Z,22.46
2018-01-10T00:58:23.398Z,22.49
2018-01-10T00:59:23.302Z,22.44
2018-01-10T01:01:16.562Z,22.46
2018-01-10T01:02:16.482Z,22.49
2018-01-10T01:04:09.772Z,22.48
2018-01-10T01:05:09.646Z,22.44
2018-01-10T01:07:02.894Z,22.51
2018-01-10T01:08:02.786Z,22.48
2018-01-10T01:09:56.084Z,22.44
2018-01-10T01:10:55.982Z,22.38
2018-01-10T01:12:49.222Z,22.46
2018-01-10T01:13:49.142Z,22.43
2018-01-10T01:15:42.409Z,22.37
2018-01-10T01:16:42.313Z,22.48
2018-01-10T01:18:35.567Z,22.44
2018-01-10T01:19:35.480Z,22.48
2018-01-10T01:21:28.773Z,22.40
2018-01-10T01:22:28.664Z,22.41
2018-01-10T01:24:21.917Z,22.51
2018-01-10T01:25:21.824Z,22.46
2018-01-10T01:27:15.084Z,22.43
2018-01-10T01:28:14.968Z,22.48
2018-01-10T01:30:09.295Z,22.44
2018-01-10T01:31:09.181Z,22.46
2018-01-10T01:33:02.518Z,22.44
2018-01-10T01:34:02.404Z,22.44
2018-01-10T01:35:55.640Z,22.36
2018-01-10T01:36:55.547Z,22.48
2018-01-10T01:38:49.939Z,22.49
2018-01-10T01:39:49.729Z,22.51
2018-01-10T01:41:43.011Z,22.46
2018-01-10T01:42:42.896Z,22.46
2018-01-10T01:44:36.234Z,22.46
2018-01-10T01:45:36.071Z,22.34
2018-01-10T01:47:29.340Z,22.37
2018-01-10T01:48:29.252Z,22.37
2018-01-10T01:50:22.518Z,22.51
2018-01-10T01:51:22.414Z,22.46
2018-01-10T01:53:15.706Z,22.44
2018-01-10T01:54:15.625Z,22.44
2018-01-10T01:56:08.918Z,22.46
2018-01-10T01:57:08.801Z,22.46
2018-01-10T01:59:02.070Z,22.36
2018-01-10T02:00:01.973Z,22.46
2018-01-10T02:01:55.258Z,22.44
2018-01-10T02:02:55.131Z,22.49
2018-01-10T02:04:48.369Z,22.46
2018-01-10T02:05:48.292Z,22.46
2018-01-10T02:07:41.557Z,22.46
2018-01-10T02:08:41.445Z,22.43
2018-01-10T02:10:35.755Z,22.48
2018-01-10T02:11:35.668Z,22.40
2018-01-10T02:13:28.944Z,22.44
2018-01-10T02:14:28.836Z,22.37
2018-01-10T02:16:22.066Z,22.46
2018-01-10T02:17:21.977Z,22.49
2018-01-10T02:19:15.251Z,22.49
2018-01-10T02:20:15.165Z,22.49
2018-01-10T02:22:08.395Z,22.43
2018-01-10T02:23:08.332Z,22.51
2018-01-10T02:25:01.677Z,22.43
2018-01-10T02:26:01.498Z,22.44
2018-01-10T02:27:54.792Z,22.44
2018-01-10T02:28:54.696Z,22.37
2018-01-10T02:30:47.979Z,22.48
2018-01-10T02:31:47.875Z,22.43
2018-01-10T02:33:41.138Z,22.46
2018-01-10T02:34:41.042Z,22.46
2018-01-10T02:36:34.315Z,22.38
2018-01-10T02:37:34.204Z,22.44
2018-01-10T02:39:27.520Z,22.33
2018-01-10T02:40:27.437Z,22.43
2018-01-10T02:42:20.782Z,22.37
2018-01-10T02:43:20.610Z,22.44
2018-01-10T02:45:13.863Z,22.43
2018-01-10T02:46:13.790Z,22.46
2018-01-10T02:48:07.062Z,22.46
2018-01-10T02:49:06.964Z,22.46
2018-01-10T02:51:00.214Z,22.51
2018-01-10T02:52:00.134Z,22.49
2018-01-10T02:53:53.408Z,22.46
2018-01-10T02:54:53.296Z,22.46
2018-01-10T02:56:46.525Z,22.44
2018-01-10T02:57:46.435Z,22.46
2018-01-10T02:59:39.720Z,22.46
2018-01-10T03:00:39.617Z,22.46
2018-01-10T03:02:32.866Z,22.48
2018-01-10T03:03:32.780Z,22.48
2018-01-10T03:05:26.059Z,22.43
2018-01-10T03:06:25.955Z,22.43
2018-01-10T03:08:19.227Z,22.43
2018-01-10T03:09:19.149Z,22.48
2018-01-10T03:11:12.434Z,22.40
2018-01-10T03:12:12.320Z,22.37
2018-01-10T03:14:05.598Z,22.46
2018-01-10T03:15:05.506Z,22.48
2018-01-10T03:16:58.775Z,22.46
2018-01-10T03:17:58.665Z,22.44
2018-01-10T03:19:51.919Z,22.43
2018-01-10T03:20:51.844Z,22.46
2018-01-10T03:22:46.110Z,22.38
2018-01-10T03:23:46.013Z,22.37
2018-01-10T03:25:39.286Z,22.46
2018-01-10T03:26:39.193Z,22.46
2018-01-10T03:28:32.514Z,22.48
2018-01-10T03:29:32.459Z,22.43
2018-01-10T03:31:26.746Z,22.46
2018-01-10T03:32:26.573Z,22.41
2018-01-10T03:34:19.898Z,22.41
2018-01-10T03:35:19.800Z,22.38
2018-01-10T03:37:13.018Z,22.43
2018-01-10T03:38:12.920Z,22.37
2018-01-10T03:40:06.219Z,22.51
2018-01-10T03:41:06.138Z,22.51
2018-01-10T03:42:59.382Z,22.44
2018-01-10T03:43:59.286Z,22.37
2018-01-10T03:45:52.581Z,22.37
2018-01-10T03:46:52.488Z,22.37
2018-01-10T03:48:45.716Z,22.44
2018-01-10T03:49:45.632Z,22.36
2018-01-10T03:51:38.917Z,22.40
2018-01-10T03:52:38.816Z,22.34
2018-01-10T03:54:32.076Z,22.43
2018-01-10T03:55:31.992Z,22.33
2018-01-10T03:57:25.268Z,22.38
2018-01-10T03:58:25.168Z,22.37
2018-01-10T04:00:18.436Z,22.49
2018-01-10T04:01:18.332Z,22.37
2018-01-10T04:03:11.728Z,22.41
2018-01-10T04:04:11.508Z,22.41
2018-01-10T04:06:04.760Z,22.40
2018-01-10T04:07:04.668Z,22.43
2018-01-10T04:08:57.957Z,22.37
2018-01-10T04:09:57.846Z,22.34
2018-01-10T04:11:51.119Z,22.36
2018-01-10T04:12:51.030Z,22.36
2018-01-10T04:14:44.293Z,22.44
2018-01-10T04:15:44.177Z,22.49
2018-01-10T04:17:37.439Z,22.41
2018-01-10T04:18:37.354Z,22.43
2018-01-10T04:20:31.655Z,22.36
2018-01-10T04:21:31.548Z,22.36
2018-01-10T04:23:24.843Z,22.43
2018-01-10T04:24:24.727Z,22.44
2018-01-10T04:26:17.967Z,22.37
2018-01-10T04:27:17.883Z,22.37
2018-01-10T04:29:12.160Z,22.40
2018-01-10T04:30:12.075Z,22.36
2018-01-10T04:32:05.342Z,22.48
2018-01-10T04:33:05.236Z,22.41
2018-01-10T04:34:58.503Z,22.38
2018-01-10T04:35:58.412Z,22.33
2018-01-10T04:37:51.693Z,22.40
2018-01-10T04:38:51.584Z,22.51
2018-01-10T04:40:44.855Z,22.61
2018-01-10T04:41:44.761Z,22.62
2018-01-10T04:43:38.070Z,22.73
2018-01-10T04:44:37.936Z,22.74
2018-01-10T04:46:31.200Z,22.76
2018-01-10T04:47:31.107Z,22.74
2018-01-10T04:49:24.375Z,22.73
2018-01-10T04:50:24.276Z,22.74
2018-01-10T04:52:17.558Z,22.71
2018-01-10T04:53:17.475Z,22.78
2018-01-10T04:55:10.759Z,22.70
2018-01-10T04:56:10.651Z,22.71
2018-01-10T04:58:03.905Z,22.70
2018-01-10T04:59:03.811Z,22.71
2018-01-10T05:00:57.116Z,22.71
2018-01-10T05:01:57.005Z,22.68
2018-01-10T05:03:50.275Z,22.74
2018-01-10T05:04:50.178Z,22.71
2018-01-10T05:06:43.417Z,22.83
2018-01-10T05:07:43.311Z,22.77
2018-01-10T05:09:36.605Z,22.88
2018-01-10T05:10:36.510Z,22.80
2018-01-10T05:12:29.832Z,23.01
2018-01-10T05:13:29.682Z,23.04
2018-01-10T05:15:22.942Z,22.93
2018-01-10T05:16:22.854Z,22.91
2018-01-10T05:18:16.126Z,22.73
2018-01-10T05:19:16.020Z,22.68
2018-01-10T05:21:09.287Z,22.70
2018-01-10T05:22:09.204Z,22.56
2018-01-10T05:24:02.469Z,22.61
2018-01-10T05:25:02.480Z,22.59
2018-01-10T05:26:55.611Z,22.59
2018-01-10T05:27:55.516Z,22.61
2018-01-10T05:29:48.831Z,22.59
2018-01-10T05:30:48.704Z,22.66
2018-01-10T05:32:41.964Z,22.66
2018-01-10T05:33:41.901Z,22.64
2018-01-10T05:35:35.153Z,22.62
2018-01-10T05:36:35.055Z,22.64
2018-01-10T05:38:28.295Z,22.64
2018-01-10T05:39:28.214Z,22.58
2018-01-10T05:41:21.494Z,22.49
2018-01-10T05:42:21.391Z,22.49
2018-01-10T05:44:14.643Z,22.55
2018-01-10T05:45:14.577Z,22.49
2018-01-10T05:47:07.822Z,22.58
2018-01-10T05:48:07.705Z,22.59
2018-01-10T05:50:00.972Z,22.59
2018-01-10T05:51:00.891Z,22.59
2018-01-10T05:52:54.167Z,22.62
2018-01-10T05:53:54.041Z,22.53
2018-01-10T05:55:47.297Z,22.64
2018-01-10T05:56:47.219Z,22.64
2018-01-10T05:58:40.490Z,22.52
2018-01-10T05:59:40.388Z,22.62
2018-01-10T06:01:33.641Z,22.61
2018-01-10T06:02:33.562Z,22.64
2018-01-10T06:04:26.878Z,22.61
2018-01-10T06:05:26.747Z,22.62
2018-01-10T06:07:20.001Z,22.64
2018-01-10T06:08:19.918Z,22.61
2018-01-10T06:10:13.240Z,22.61
2018-01-10T06:11:13.127Z,22.55
2018-01-10T06:13:06.380Z,22.41
2018-01-10T06:14:06.312Z,22.56
2018-01-10T06:15:59.568Z,22.56
2018-01-10T06:16:59.466Z,22.64
2018-01-10T06:18:52.719Z,22.61
2018-01-10T06:19:52.642Z,22.52
2018-01-10T06:21:45.955Z,22.49
2018-01-10T06:22:45.859Z,22.51
2018-01-10T06:24:39.096Z,22.53
2018-01-10T06:25:39.006Z,22.52
2018-01-10T06:27:32.299Z,22.52
2018-01-10T06:28:32.197Z,22.52
2018-01-10T06:30:25.459Z,22.53
2018-01-10T06:31:25.374Z,22.48
2018-01-10T06:33:18.659Z,22.58
2018-01-10T06:34:18.552Z,22.49
2018-01-10T06:36:11.863Z,22.62
2018-01-10T06:37:11.787Z,22.51
2018-01-10T06:39:05.061Z,22.48
2018-01-10T06:40:04.934Z,22.43
2018-01-10T06:41:58.192Z,22.44
2018-01-10T06:42:58.106Z,22.53
2018-01-10T06:44:51.402Z,22.64
2018-01-10T06:45:51.283Z,22.61
2018-01-10T06:47:44.557Z,22.56
2018-01-10T06:48:44.470Z,22.52
2018-01-10T06:50:37.726Z,22.51
2018-01-10T06:51:37.627Z,22.43
2018-01-10T06:53:30.923Z,22.44
2018-01-10T06:54:30.833Z,22.44
2018-01-10T06:56:24.091Z,22.43
2018-01-10T06:57:23.972Z,22.59
2018-01-10T06:59:18.232Z,22.58
2018-01-10T07:00:18.154Z,22.49
2018-01-10T07:02:11.439Z,22.48
2018-01-10T07:03:11.333Z,22.56
2018-01-10T07:05:04.636Z,22.55
2018-01-10T07:06:04.561Z,22.44
2018-01-10T07:07:57.822Z,22.52
2018-01-10T07:08:57.727Z,22.48
2018-01-10T07:10:50.984Z,22.61
2018-01-10T07:11:50.904Z,22.48
2018-01-10T07:13:44.163Z,22.46
2018-01-10T07:14:44.047Z,22.43
2018-01-10T07:16:37.265Z,22.41
2018-01-10T07:17:37.197Z,22.48
2018-01-10T07:19:30.482Z,22.53
2018-01-10T07:20:30.370Z,22.44
2018-01-10T07:22:23.658Z,22.46
2018-01-10T07:23:23.570Z,22.53
2018-01-10T07:25:16.847Z,22.48
2018-01-10T07:26:16.733Z,22.59
2018-01-10T07:28:09.981Z,22.55
2018-01-10T07:29:09.909Z,22.49
2018-01-10T07:31:03.173Z,22.61
2018-01-10T07:32:03.061Z,22.48
2018-01-10T07:33:56.311Z,22.46
2018-01-10T07:34:56.235Z,22.43
2018-01-10T07:36:49.474Z,22.46
2018-01-10T07:37:49.356Z,22.41
2018-01-10T07:39:42.665Z,22.49
2018-01-10T07:40:42.581Z,22.48
2018-01-10T07:42:35.847Z,22.46
2018-01-10T07:43:35.757Z,22.61
2018-01-10T07:45:29.003Z,22.44
2018-01-10T07:46:28.940Z,22.64
2018-01-10T07:48:22.219Z,22.53
2018-01-10T07:49:22.113Z,22.48
2018-01-10T07:51:15.377Z,22.55
2018-01-10T07:52:15.288Z,22.52
2018-01-10T07:54:08.560Z,22.52
2018-01-10T07:55:08.453Z,22.56
2018-01-10T07:57:01.667Z,22.49
2018-01-10T07:58:01.593Z,22.52
2018-01-10T07:59:54.897Z,22.49
2018-01-10T08:00:54.786Z,22.64
2018-01-10T08:02:48.088Z,22.49
2018-01-10T08:03:47.996Z,22.58
2018-01-10T08:05:41.281Z,22.53
2018-01-10T08:06:41.182Z,22.59
2018-01-10T08:08:34.443Z,22.61
2018-01-10T08:09:34.379Z,22.56
2018-01-10T08:11:27.641Z,22.53
2018-01-10T08:12:27.540Z,22.53
2018-01-10T08:14:20.798Z,22.46
2018-01-10T08:15:20.717Z,22.48
2018-01-10T08:17:13.950Z,22.53
2018-01-10T08:18:13.871Z,22.55
2018-01-10T08:20:07.142Z,22.56
2018-01-10T08:21:07.071Z,22.58
2018-01-10T08:23:00.353Z,22.59
2018-01-10T08:24:00.226Z,22.49
2018-01-10T08:25:53.477Z,22.46
2018-01-10T08:26:53.394Z,22.46
2018-01-10T08:28:46.684Z,22.49
2018-01-10T08:29:46.556Z,22.59
2018-01-10T08:31:39.813Z,22.55
2018-01-10T08:32:39.733Z,22.59
2018-01-10T08:34:33.035Z,22.59
2018-01-10T08:35:32.934Z,22.46
2018-01-10T08:37:26.187Z,22.46
2018-01-10T08:38:26.097Z,22.51
2018-01-10T08:40:19.413Z,22.51
2018-01-10T08:41:19.281Z,22.48
2018-01-10T08:43:12.534Z,22.44
2018-01-10T08:44:12.442Z,22.56
2018-01-10T08:46:05.744Z,22.64
2018-01-10T08:47:05.614Z,22.48
2018-01-10T08:48:58.875Z,22.58
2018-01-10T08:49:58.786Z,22.58
2018-01-10T08:51:52.058Z,22.56
2018-01-10T08:52:51.963Z,22.48
2018-01-10T08:54:45.225Z,22.64
2018-01-10T08:55:45.145Z,22.48
2018-01-10T08:57:38.444Z,22.51
2018-01-10T08:58:38.320Z,22.62
2018-01-10T09:00:32.584Z,22.53
2018-01-10T09:01:32.513Z,22.52
2018-01-10T09:03:26.825Z,22.49
2018-01-10T09:04:26.738Z,22.55
2018-01-10T09:06:19.950Z,22.49
2018-01-10T09:07:19.873Z,22.44
2018-01-10T09:09:13.274Z,22.56
2018-01-10T09:10:13.144Z,22.58
2018-01-10T09:12:06.407Z,22.55
2018-01-10T09:13:06.312Z,22.58
2018-01-10T09:14:59.585Z,22.48
2018-01-10T09:15:59.483Z,22.48
2018-01-10T09:17:52.739Z,22.59
2018-01-10T09:18:52.648Z,22.59
2018-01-10T09:20:45.942Z,22.53
2018-01-10T09:21:45.834Z,22.58
2018-01-10T09:23:39.095Z,22.56
2018-01-10T09:24:39.033Z,22.56
2018-01-10T09:26:32.298Z,22.48
2018-01-10T09:27:32.149Z,22.56
2018-01-10T09:29:25.415Z,22.46
2018-01-10T09:30:25.326Z,22.58
2018-01-10T09:32:18.614Z,22.53
2018-01-10T09:33:18.517Z,22.44
2018-01-10T09:35:11.756Z,22.49
2018-01-10T09:36:11.671Z,22.48
2018-01-10T09:38:05.005Z,22.49
2018-01-10T09:39:04.875Z,22.46
2018-01-10T09:40:58.107Z,22.43
2018-01-10T09:41:58.032Z,22.61
2018-01-10T09:43:51.312Z,22.41
2018-01-10T09:44:51.185Z,22.61
2018-01-10T09:46:44.407Z,22.41
2018-01-10T09:47:44.322Z,22.41
2018-01-10T09:49:37.609Z,22.43
2018-01-10T09:50:37.498Z,22.46
2018-01-10T09:52:30.783Z,22.43
2018-01-10T09:53:30.705Z,22.44
2018-01-10T09:55:23.991Z,22.46
2018-01-10T09:56:23.857Z,22.51
2018-01-10T09:58:17.134Z,22.48
2018-01-10T09:59:17.055Z,22.43
2018-01-10T10:01:10.348Z,22.43
2018-01-10T10:02:10.229Z,22.48
2018-01-10T10:04:04.526Z,22.41
2018-01-10T10:05:04.446Z,22.46
2018-01-10T10:06:57.703Z,22.49
2018-01-10T10:07:57.610Z,22.44
2018-01-10T10:09:50.885Z,22.44
2018-01-10T10:10:50.795Z,22.49
2018-01-10T10:12:44.074Z,22.48
2018-01-10T10:13:43.952Z,22.48
2018-01-10T10:15:37.213Z,22.43
2018-01-10T10:16:37.113Z,22.46
2018-01-10T10:18:30.402Z,22.48
2018-01-10T10:19:30.298Z,22.48
2018-01-10T10:21:23.556Z,22.44
2018-01-10T10:22:23.476Z,22.48
2018-01-10T10:24:16.813Z,22.43
2018-01-10T10:25:16.676Z,22.48
2018-01-10T10:27:09.888Z,22.55
2018-01-10T10:28:09.805Z,22.58
2018-01-10T10:30:03.095Z,22.61
2018-01-10T10:31:02.978Z,22.46
2018-01-10T10:32:56.229Z,22.58
2018-01-10T10:33:56.147Z,22.48
2018-01-10T10:35:49.448Z,22.58
2018-01-10T10:36:49.325Z,22.58
2018-01-10T10:38:42.572Z,22.48
2018-01-10T10:39:42.488Z,22.46
2018-01-10T10:41:35.792Z,22.52
2018-01-10T10:42:35.689Z,22.40
2018-01-10T10:44:28.977Z,22.44
2018-01-10T10:45:28.890Z,22.51
2018-01-10T10:47:22.174Z,22.51
2018-01-10T10:48:22.070Z,22.44
2018-01-10T10:50:15.331Z,22.44
2018-01-10T10:51:15.242Z,22.48
2018-01-10T10:53:08.523Z,22.56
2018-01-10T10:54:08.421Z,22.46
2018-01-10T10:56:01.693Z,22.51
2018-01-10T10:57:01.631Z,22.48
2018-01-10T10:58:54.907Z,22.58
2018-01-10T10:59:54.810Z,22.46
2018-01-10T11:01:48.052Z,22.55
2018-01-10T11:02:47.974Z,22.61
2018-01-10T11:04:41.282Z,22.44
2018-01-10T11:05:41.153Z,22.44
2018-01-10T11:07:34.417Z,22.44
2018-01-10T11:08:34.325Z,22.49
2018-01-10T11:10:27.606Z,22.51
2018-01-10T11:11:27.505Z,22.48
2018-01-10T11:13:20.744Z,22.41
2018-01-10T11:14:20.668Z,22.43
2018-01-10T11:16:13.957Z,22.46
2018-01-10T11:17:13.857Z,22.46
2018-01-10T11:19:07.106Z,22.51
2018-01-10T11:20:07.016Z,22.48
2018-01-10T11:22:00.304Z,22.66
2018-01-10T11:23:00.193Z,22.49
2018-01-10T11:24:53.443Z,22.58
2018-01-10T11:25:53.360Z,22.48
2018-01-10T11:27:46.637Z,22.53
2018-01-10T11:28:46.528Z,22.55
2018-01-10T11:30:39.781Z,22.49
2018-01-10T11:31:39.693Z,22.53
2018-01-10T11:33:32.978Z,22.53
2018-01-10T11:34:32.861Z,22.49
2018-01-10T11:36:26.078Z,22.46
2018-01-10T11:37:25.993Z,22.56
2018-01-10T11:39:19.299Z,22.56
2018-01-10T11:40:19.234Z,22.56
2018-01-10T11:42:12.446Z,22.53
2018-01-10T11:43:12.367Z,22.46
2018-01-10T11:45:05.683Z,22.58
2018-01-10T11:46:05.569Z,22.51
2018-01-10T11:47:58.814Z,22.53
2018-01-10T11:48:58.739Z,22.48
2018-01-10T11:50:52.026Z,22.49
2018-01-10T11:51:51.922Z,22.46
2018-01-10T11:53:45.172Z,22.62
2018-01-10T11:54:45.080Z,22.61
2018-01-10T11:56:38.394Z,22.49
2018-01-10T11:57:38.240Z,22.66
2018-01-10T11:59:31.531Z,22.62
2018-01-10T12:00:31.442Z,22.53
2018-01-10T12:02:24.728Z,22.56
2018-01-10T12:03:24.625Z,22.56
2018-01-10T12:05:17.884Z,22.53
2018-01-10T12:06:17.798Z,22.56
2018-01-10T12:08:11.144Z,22.56
2018-01-10T12:09:10.995Z,22.52
2018-01-10T12:11:04.251Z,22.49
2018-01-10T12:12:04.169Z,22.48
2018-01-10T12:13:58.485Z,22.59
2018-01-10T12:14:58.374Z,22.56
2018-01-10T12:16:51.605Z,22.58
2018-01-10T12:17:51.521Z,22.48
2018-01-10T12:19:44.819Z,22.53
2018-01-10T12:20:44.713Z,22.53
2018-01-10T12:22:37.964Z,22.62
2018-01-10T12:23:37.883Z,22.49
2018-01-10T12:25:31.170Z,22.46
2018-01-10T12:26:31.055Z,22.58
2018-01-10T12:28:24.298Z,22.56
2018-01-10T12:29:24.215Z,22.48
2018-01-10T12:31:17.537Z,22.53
2018-01-10T12:32:17.404Z,22.49
2018-01-10T12:34:10.655Z,22.55
2018-01-10T12:35:10.571Z,22.46
2018-01-10T12:37:03.853Z,22.49
2018-01-10T12:38:03.735Z,22.52
2018-01-10T12:39:56.996Z,22.58
2018-01-10T12:40:56.920Z,22.59
2018-01-10T12:42:50.194Z,22.59
2018-01-10T12:43:50.073Z,22.58
2018-01-10T12:45:43.362Z,22.51
2018-01-10T12:46:43.276Z,22.61
2018-01-10T12:48:36.574Z,22.55
2018-01-10T12:49:36.436Z,22.56
2018-01-10T12:51:29.704Z,22.53
2018-01-10T12:52:29.593Z,22.59
2018-01-10T12:54:22.871Z,22.55
2018-01-10T12:55:22.763Z,22.52
2018-01-10T12:57:16.006Z,22.52
2018-01-10T12:58:15.902Z,22.52
2018-01-10T13:00:10.204Z,22.48
2018-01-10T13:01:10.085Z,22.53
2018-01-10T13:03:03.362Z,22.44
2018-01-10T13:04:03.286Z,22.53
2018-01-10T13:05:56.559Z,22.46
2018-01-10T13:06:56.466Z,22.49
2018-01-10T13:08:49.720Z,22.55
2018-01-10T13:09:49.644Z,22.53
2018-01-10T13:11:42.933Z,22.67
2018-01-10T13:12:42.841Z,22.58
2018-01-10T13:14:36.060Z,22.58
2018-01-10T13:15:35.972Z,22.55
2018-01-10T13:17:29.292Z,22.55
2018-01-10T13:18:29.151Z,22.55
2018-01-10T13:20:22.426Z,22.51
2018-01-10T13:21:22.331Z,22.48
2018-01-10T13:23:15.605Z,22.53
2018-01-10T13:24:15.496Z,22.49
2018-01-10T13:26:08.757Z,22.59
2018-01-10T13:27:08.658Z,22.56
2018-01-10T13:29:01.946Z,22.56
2018-01-10T13:30:01.845Z,22.55
2018-01-10T13:31:55.080Z,22.52
2018-01-10T13:32:55.003Z,22.46
2018-01-10T13:34:48.282Z,22.56
2018-01-10T13:35:48.154Z,22.55
2018-01-10T13:37:41.429Z,22.46
2018-01-10T13:38:41.346Z,22.52
2018-01-10T13:40:34.630Z,22.48
2018-01-10T13:41:34.522Z,22.51
2018-01-10T13:43:27.782Z,22.51
2018-01-10T13:44:27.701Z,22.55
2018-01-10T13:46:20.931Z,22.53
2018-01-10T13:47:20.821Z,22.58
2018-01-10T13:49:14.102Z,22.53
2018-01-10T13:50:14.038Z,22.58
2018-01-10T13:52:07.300Z,22.55
2018-01-10T13:53:07.188Z,22.53
2018-01-10T13:55:00.478Z,22.66
2018-01-10T13:56:00.377Z,22.51
2018-01-10T13:57:53.661Z,22.55
2018-01-10T13:58:53.542Z,22.52
2018-01-10T14:00:46.817Z,22.56
2018-01-10T14:01:46.733Z,22.61
2018-01-10T14:03:40.036Z,22.53
2018-01-10T14:04:39.924Z,22.51
2018-01-10T14:06:33.168Z,22.58
2018-01-10T14:07:33.054Z,22.52
2018-01-10T14:09:27.380Z,22.49
2018-01-10T14:10:27.254Z,22.52
2018-01-10T14:12:20.514Z,22.53
2018-01-10T14:13:20.426Z,22.56
2018-01-10T14:15:13.855Z,22.52
2018-01-10T14:16:13.725Z,22.53
2018-01-10T14:18:06.981Z,22.49
2018-01-10T14:19:06.897Z,22.46
2018-01-10T14:21:00.184Z,22.48
2018-01-10T14:22:00.072Z,22.52
2018-01-10T14:23:53.315Z,22.56
2018-01-10T14:24:53.239Z,22.53
2018-01-10T14:26:46.482Z,22.46
2018-01-10T14:27:46.375Z,22.48
2018-01-10T14:29:39.641Z,22.49
2018-01-10T14:30:39.550Z,22.52
2018-01-10T14:32:32.824Z,22.52
2018-01-10T14:33:32.708Z,22.48
2018-01-10T14:35:25.946Z,22.64
2018-01-10T14:36:25.864Z,22.51
2018-01-10T14:38:19.167Z,22.56
2018-01-10T14:39:19.047Z,22.53
2018-01-10T14:41:12.295Z,22.64
2018-01-10T14:42:12.213Z,22.58
2018-01-10T14:44:05.491Z,22.52
2018-01-10T14:45:05.374Z,22.52
2018-01-10T14:46:58.595Z,22.52
2018-01-10T14:47:58.511Z,22.61
2018-01-10T14:49:51.828Z,22.64
2018-01-10T14:50:51.685Z,22.51
2018-01-10T14:52:44.954Z,22.55
2018-01-10T14:53:44.859Z,22.56
2018-01-10T14:55:38.135Z,22.53
2018-01-10T14:56:38.021Z,22.49
2018-01-10T14:58:31.319Z,22.59
2018-01-10T14:59:31.211Z,22.55
2018-01-10T15:01:24.479Z,22.51
2018-01-10T15:02:24.360Z,22.56
2018-01-10T15:04:17.643Z,22.53
2018-01-10T15:05:17.565Z,22.48
2018-01-10T15:07:10.801Z,22.56
2018-01-10T15:08:10.724Z,22.58
2018-01-10T15:10:03.989Z,22.49
2018-01-10T15:11:03.898Z,22.46
2018-01-10T15:12:57.180Z,22.53
2018-01-10T15:13:57.083Z,22.49
2018-01-10T15:15:50.382Z,22.44
2018-01-10T15:16:50.295Z,22.48
2018-01-10T15:18:43.540Z,22.53
2018-01-10T15:19:43.451Z,22.56
2018-01-10T15:21:36.841Z,22.58
2018-01-10T15:22:36.660Z,22.46
2018-01-10T15:24:29.904Z,22.53
2018-01-10T15:25:29.821Z,22.58
2018-01-10T15:27:24.099Z,22.61
2018-01-10T15:28:23.994Z,22.62
2018-01-10T15:30:17.264Z,22.67
2018-01-10T15:31:17.181Z,22.70
2018-01-10T15:33:10.469Z,22.74
2018-01-10T15:34:10.358Z,22.68
2018-01-10T15:36:03.615Z,22.76
2018-01-10T15:37:03.529Z,22.88
2018-01-10T15:38:56.831Z,22.98
2018-01-10T15:39:56.708Z,22.99
2018-01-10T15:41:49.978Z,22.99
2018-01-10T15:42:49.886Z,22.98
2018-01-10T15:44:43.251Z,22.92
2018-01-10T15:45:43.146Z,22.95
2018-01-10T15:47:36.424Z,22.96
2018-01-10T15:48:36.338Z,22.99
2018-01-10T15:50:29.610Z,22.99
2018-01-10T15:51:29.526Z,23.06
2018-01-10T15:53:22.777Z,23.10
2018-01-10T15:54:22.691Z,23.06
2018-01-10T15:56:15.949Z,23.07
2018-01-10T15:57:15.838Z,23.03
2018-01-10T15:59:09.146Z,22.99
2018-01-10T16:00:09.065Z,23.07
2018-01-10T16:02:02.498Z,23.03
2018-01-10T16:03:02.251Z,23.07
2018-01-10T16:04:56.539Z,23.17
2018-01-10T16:05:56.446Z,23.14
2018-01-10T16:07:49.745Z,23.04
2018-01-10T16:08:49.636Z,23.03
2018-01-10T16:10:42.895Z,22.85
2018-01-10T16:11:42.809Z,22.88
2018-01-10T16:13:36.116Z,22.80
2018-01-10T16:14:35.996Z,22.77
2018-01-10T16:16:29.238Z,22.73
2018-01-10T16:17:29.147Z,22.70
2018-01-10T16:19:22.408Z,22.76
2018-01-10T16:20:22.307Z,22.73
2018-01-10T16:22:15.567Z,22.73
2018-01-10T16:23:15.481Z,22.74
2018-01-10T16:25:08.765Z,22.61
2018-01-10T16:26:08.653Z,22.59
2018-01-10T16:28:01.917Z,22.58
2018-01-10T16:29:01.838Z,22.61
2018-01-10T16:30:55.172Z,22.59
2018-01-10T16:31:55.083Z,22.62
2018-01-10T16:33:48.328Z,22.56
2018-01-10T16:34:48.231Z,22.52
2018-01-10T16:36:41.496Z,22.46
2018-01-10T16:37:41.387Z,22.49
2018-01-10T16:39:35.671Z,22.49
2018-01-10T16:40:35.572Z,22.49
2018-01-10T16:42:28.881Z,22.55
2018-01-10T16:43:28.763Z,22.44
2018-01-10T16:45:22.027Z,22.46
2018-01-10T16:46:21.951Z,22.43
2018-01-10T16:48:15.234Z,22.46
2018-01-10T16:49:15.110Z,22.44
2018-01-10T16:51:08.393Z,22.41
2018-01-10T16:52:08.297Z,22.44
2018-01-10T16:54:01.590Z,22.51
2018-01-10T16:55:01.481Z,22.44
2018-01-10T16:56:54.691Z,22.48
2018-01-10T16:57:54.615Z,22.36
2018-01-10T16:59:47.888Z,22.43
2018-01-10T17:00:47.788Z,22.38
2018-01-10T17:02:41.036Z,22.41
2018-01-10T17:03:40.948Z,22.46
2018-01-10T17:05:34.334Z,22.36
2018-01-10T17:06:34.144Z,22.40
2018-01-10T17:08:27.415Z,22.37
2018-01-10T17:09:27.344Z,22.37
2018-01-10T17:11:20.634Z,22.37
2018-01-10T17:12:20.511Z,22.43
2018-01-10T17:14:13.814Z,22.36
2018-01-10T17:15:13.725Z,22.36
2018-01-10T17:17:06.971Z,22.49
2018-01-10T17:18:06.876Z,22.46
2018-01-10T17:20:00.145Z,22.51
2018-01-10T17:21:00.067Z,22.46
2018-01-10T17:22:53.397Z,22.49
2018-01-10T17:23:53.286Z,22.49
2018-01-10T17:25:46.540Z,22.46
2018-01-10T17:26:46.456Z,22.36
2018-01-10T17:28:39.748Z,22.49
2018-01-10T17:29:39.631Z,22.46
2018-01-10T17:31:32.888Z,22.49
2018-01-10T17:32:32.797Z,22.43
2018-01-10T17:34:26.065Z,22.51
2018-01-10T17:35:25.979Z,22.41
2018-01-10T17:37:19.247Z,22.37
2018-01-10T17:38:19.160Z,22.41
2018-01-10T17:40:12.440Z,22.44
2018-01-10T17:41:12.321Z,22.44
2018-01-10T17:43:05.611Z,22.43
2018-01-10T17:44:05.537Z,22.41
2018-01-10T17:45:58.841Z,22.41
2018-01-10T17:46:58.704Z,22.46
2018-01-10T17:48:52.004Z,22.48
2018-01-10T17:49:51.907Z,22.46
2018-01-10T17:51:45.175Z,22.46
2018-01-10T17:52:45.070Z,22.48
2018-01-10T17:54:38.326Z,22.48
2018-01-10T17:55:38.230Z,22.51
2018-01-10T17:57:31.620Z,22.40
2018-01-10T17:58:31.481Z,22.44
2018-01-10T18:00:24.760Z,22.37
2018-01-10T18:01:24.680Z,22.36
2018-01-10T18:03:17.980Z,22.40
2018-01-10T18:04:17.868Z,22.38
2018-01-10T18:06:11.134Z,22.44
2018-01-10T18:07:11.041Z,22.36
2018-01-10T18:09:04.326Z,22.36
2018-01-10T18:10:04.215Z,22.40
2018-01-10T18:11:57.467Z,22.33
2018-01-10T18:12:57.386Z,22.31
2018-01-10T18:14:50.709Z,22.33
2018-01-10T18:15:50.594Z,22.36
2018-01-10T18:17:43.846Z,22.22
2018-01-10T18:18:43.760Z,22.27
2018-01-10T18:20:37.108Z,22.33
2018-01-10T18:21:36.998Z,22.34
2018-01-10T18:23:30.262Z,22.34
2018-01-10T18:24:30.188Z,22.30
2018-01-10T18:26:23.451Z,22.34
2018-01-10T18:27:23.307Z,22.22
2018-01-10T18:29:16.578Z,22.22
2018-01-10T18:30:16.503Z,22.27
2018-01-10T18:32:09.815Z,22.27
2018-01-10T18:33:09.667Z,22.19
2018-01-10T18:35:02.937Z,22.31